sensor_id;sensor_type;location;lat;lon;timestamp;pressure;altitude;pressure_sealevel;temperature;humidity
77626;BME280;66794;43.764;10.436;2023-04-03T00:00:21;101315.00;;;9.31;100.00
77626;BME280;66794;43.764;10.436;2023-04-03T00:02:47;101326.31;;;9.35;100.00
77626;BME280;66794;43.764;10.436;2023-04-03T00:05:12;101322.38;;;8.93;100.00
77626;BME280;66794;43.764;10.436;2023-04-03T00:07:37;101315.34;;;9.01;100.00
77626;BME280;66794;43.764;10.436;2023-04-03T00:10:02;101320.34;;;8.95;100.00
77626;BME280;66794;43.764;10.436;2023-04-03T00:12:28;101318.38;;;8.98;100.00
77626;BME280;66794;43.764;10.436;2023-04-03T00:14:53;101318.09;;;8.91;100.00
77626;BME280;66794;43.764;10.436;2023-04-03T00:17:18;101312.19;;;8.87;100.00
77626;BME280;66794;43.764;10.436;2023-04-03T00:19:44;101308.47;;;9.06;100.00
77626;BME280;66794;43.764;10.436;2023-04-03T00:22:09;101308.22;;;8.82;100.00
77626;BME280;66794;43.764;10.436;2023-04-03T00:24:34;101298.69;;;8.87;100.00
77626;BME280;66794;43.764;10.436;2023-04-03T00:27:00;101303.13;;;8.96;100.00
77626;BME280;66794;43.764;10.436;2023-04-03T00:29:25;101299.63;;;9.14;100.00
77626;BME280;66794;43.764;10.436;2023-04-03T00:31:50;101298.84;;;9.21;100.00
77626;BME280;66794;43.764;10.436;2023-04-03T00:34:15;101297.25;;;8.83;100.00
77626;BME280;66794;43.764;10.436;2023-04-03T00:36:41;101307.75;;;8.59;100.00
77626;BME280;66794;43.764;10.436;2023-04-03T00:39:06;101310.94;;;8.07;100.00
77626;BME280;66794;43.764;10.436;2023-04-03T00:41:31;101309.06;;;8.17;100.00
77626;BME280;66794;43.764;10.436;2023-04-03T00:43:57;101307.66;;;8.13;100.00
77626;BME280;66794;43.764;10.436;2023-04-03T00:46:22;101303.72;;;8.35;100.00
77626;BME280;66794;43.764;10.436;2023-04-03T00:48:48;101304.16;;;8.40;100.00
77626;BME280;66794;43.764;10.436;2023-04-03T00:51:18;101303.25;;;8.59;100.00
77626;BME280;66794;43.764;10.436;2023-04-03T00:53:49;101298.22;;;8.37;100.00
77626;BME280;66794;43.764;10.436;2023-04-03T00:56:16;101298.84;;;8.11;100.00
77626;BME280;66794;43.764;10.436;2023-04-03T00:58:50;101294.41;;;7.83;100.00
77626;BME280;66794;43.764;10.436;2023-04-03T01:01:18;101295.75;;;7.97;100.00
77626;BME280;66794;43.764;10.436;2023-04-03T01:03:45;101289.56;;;8.24;100.00
77626;BME280;66794;43.764;10.436;2023-04-03T01:06:11;101291.69;;;8.30;100.00
77626;BME280;66794;43.764;10.436;2023-04-03T01:08:36;101294.53;;;8.38;100.00
77626;BME280;66794;43.764;10.436;2023-04-03T01:11:01;101291.00;;;8.28;100.00
77626;BME280;66794;43.764;10.436;2023-04-03T01:13:28;101301.91;;;8.36;100.00
77626;BME280;66794;43.764;10.436;2023-04-03T01:15:55;101297.88;;;8.50;100.00
77626;BME280;66794;43.764;10.436;2023-04-03T01:18:21;101301.66;;;8.20;100.00
77626;BME280;66794;43.764;10.436;2023-04-03T01:21:00;101305.16;;;8.30;100.00
77626;BME280;66794;43.764;10.436;2023-04-03T01:26:00;101304.16;;;8.31;100.00
77626;BME280;66794;43.764;10.436;2023-04-03T01:28:29;101294.94;;;7.77;100.00
77626;BME280;66794;43.764;10.436;2023-04-03T01:30:58;101304.13;;;7.94;100.00
77626;BME280;66794;43.764;10.436;2023-04-03T01:33:25;101293.47;;;8.11;100.00
77626;BME280;66794;43.764;10.436;2023-04-03T01:35:51;101292.91;;;8.08;100.00
77626;BME280;66794;43.764;10.436;2023-04-03T01:38:16;101289.09;;;8.01;100.00
77626;BME280;66794;43.764;10.436;2023-04-03T01:40:41;101290.75;;;8.11;100.00
77626;BME280;66794;43.764;10.436;2023-04-03T01:43:07;101282.50;;;8.13;100.00
77626;BME280;66794;43.764;10.436;2023-04-03T01:45:32;101286.78;;;8.15;100.00
77626;BME280;66794;43.764;10.436;2023-04-03T01:47:57;101273.41;;;8.14;100.00
77626;BME280;66794;43.764;10.436;2023-04-03T01:50:23;101277.81;;;8.15;100.00
77626;BME280;66794;43.764;10.436;2023-04-03T01:52:48;101278.75;;;7.86;100.00
77626;BME280;66794;43.764;10.436;2023-04-03T01:55:13;101275.59;;;8.01;100.00
77626;BME280;66794;43.764;10.436;2023-04-03T01:57:38;101274.38;;;7.76;100.00
77626;BME280;66794;43.764;10.436;2023-04-03T02:00:04;101277.66;;;7.70;100.00
77626;BME280;66794;43.764;10.436;2023-04-03T02:02:30;101266.63;;;7.53;100.00
77626;BME280;66794;43.764;10.436;2023-04-03T02:04:55;101262.66;;;7.57;100.00
77626;BME280;66794;43.764;10.436;2023-04-03T02:07:20;101263.38;;;7.40;100.00
77626;BME280;66794;43.764;10.436;2023-04-03T02:09:46;101273.59;;;7.27;100.00
77626;BME280;66794;43.764;10.436;2023-04-03T02:12:11;101262.38;;;7.41;100.00
77626;BME280;66794;43.764;10.436;2023-04-03T02:14:36;101270.47;;;7.02;100.00
77626;BME280;66794;43.764;10.436;2023-04-03T02:17:02;101271.63;;;7.19;100.00
77626;BME280;66794;43.764;10.436;2023-04-03T02:19:33;101273.31;;;7.10;100.00
77626;BME280;66794;43.764;10.436;2023-04-03T02:21:59;101270.31;;;6.94;100.00
77626;BME280;66794;43.764;10.436;2023-04-03T02:24:24;101269.19;;;7.06;100.00
77626;BME280;66794;43.764;10.436;2023-04-03T02:26:50;101265.50;;;7.27;100.00
77626;BME280;66794;43.764;10.436;2023-04-03T02:29:15;101262.69;;;7.09;100.00
77626;BME280;66794;43.764;10.436;2023-04-03T02:31:40;101264.94;;;7.14;100.00
77626;BME280;66794;43.764;10.436;2023-04-03T02:34:06;101263.53;;;7.19;100.00
77626;BME280;66794;43.764;10.436;2023-04-03T02:36:31;101259.13;;;6.99;100.00
77626;BME280;66794;43.764;10.436;2023-04-03T02:38:56;101257.56;;;7.16;100.00
77626;BME280;66794;43.764;10.436;2023-04-03T02:41:22;101252.47;;;7.13;100.00
77626;BME280;66794;43.764;10.436;2023-04-03T02:43:47;101255.88;;;7.15;100.00
77626;BME280;66794;43.764;10.436;2023-04-03T02:46:12;101259.25;;;7.17;100.00
77626;BME280;66794;43.764;10.436;2023-04-03T02:48:40;101261.41;;;7.03;100.00
77626;BME280;66794;43.764;10.436;2023-04-03T02:51:05;101261.66;;;6.81;100.00
77626;BME280;66794;43.764;10.436;2023-04-03T02:53:30;101248.50;;;7.07;100.00
77626;BME280;66794;43.764;10.436;2023-04-03T02:55:56;101249.47;;;7.06;100.00
77626;BME280;66794;43.764;10.436;2023-04-03T02:58:21;101261.84;;;7.18;100.00
77626;BME280;66794;43.764;10.436;2023-04-03T03:00:46;101257.69;;;6.95;100.00
77626;BME280;66794;43.764;10.436;2023-04-03T03:03:12;101259.72;;;7.02;100.00
77626;BME280;66794;43.764;10.436;2023-04-03T03:05:39;101260.09;;;6.88;100.00
77626;BME280;66794;43.764;10.436;2023-04-03T03:08:04;101264.38;;;7.20;100.00
77626;BME280;66794;43.764;10.436;2023-04-03T03:10:29;101260.41;;;7.14;100.00
77626;BME280;66794;43.764;10.436;2023-04-03T03:12:55;101260.13;;;6.98;100.00
77626;BME280;66794;43.764;10.436;2023-04-03T03:15:20;101261.94;;;6.88;100.00
77626;BME280;66794;43.764;10.436;2023-04-03T03:17:45;101264.06;;;6.84;100.00
77626;BME280;66794;43.764;10.436;2023-04-03T03:20:11;101257.44;;;7.07;100.00
77626;BME280;66794;43.764;10.436;2023-04-03T03:22:39;101252.19;;;6.87;100.00
77626;BME280;66794;43.764;10.436;2023-04-03T03:25:04;101259.56;;;7.14;100.00
77626;BME280;66794;43.764;10.436;2023-04-03T03:27:30;101262.53;;;7.10;100.00
77626;BME280;66794;43.764;10.436;2023-04-03T03:29:55;101265.88;;;6.74;100.00
77626;BME280;66794;43.764;10.436;2023-04-03T03:32:20;101262.69;;;7.09;100.00
77626;BME280;66794;43.764;10.436;2023-04-03T03:34:46;101260.47;;;6.54;100.00
77626;BME280;66794;43.764;10.436;2023-04-03T03:37:11;101267.69;;;6.54;100.00
77626;BME280;66794;43.764;10.436;2023-04-03T03:39:36;101268.31;;;6.27;100.00
77626;BME280;66794;43.764;10.436;2023-04-03T03:42:01;101278.44;;;6.14;100.00
77626;BME280;66794;43.764;10.436;2023-04-03T03:44:27;101277.09;;;5.98;100.00
77626;BME280;66794;43.764;10.436;2023-04-03T03:46:54;101271.84;;;5.97;100.00
77626;BME280;66794;43.764;10.436;2023-04-03T03:49:19;101270.66;;;6.11;100.00
77626;BME280;66794;43.764;10.436;2023-04-03T03:51:45;101273.56;;;6.28;100.00
77626;BME280;66794;43.764;10.436;2023-04-03T03:54:10;101261.25;;;6.26;100.00
77626;BME280;66794;43.764;10.436;2023-04-03T03:56:35;101271.34;;;6.43;100.00
77626;BME280;66794;43.764;10.436;2023-04-03T03:59:01;101272.66;;;6.58;100.00
77626;BME280;66794;43.764;10.436;2023-04-03T04:01:26;101261.47;;;6.53;100.00
77626;BME280;66794;43.764;10.436;2023-04-03T04:03:51;101268.88;;;6.80;100.00
77626;BME280;66794;43.764;10.436;2023-04-03T04:06:19;101270.72;;;6.70;100.00
77626;BME280;66794;43.764;10.436;2023-04-03T04:08:44;101270.53;;;6.62;100.00
77626;BME280;66794;43.764;10.436;2023-04-03T04:11:09;101271.88;;;6.87;100.00
77626;BME280;66794;43.764;10.436;2023-04-03T04:13:34;101267.59;;;6.75;100.00
77626;BME280;66794;43.764;10.436;2023-04-03T04:16:00;101259.00;;;6.91;100.00
77626;BME280;66794;43.764;10.436;2023-04-03T04:18:25;101261.13;;;6.97;100.00
77626;BME280;66794;43.764;10.436;2023-04-03T04:20:51;101254.00;;;6.96;100.00
77626;BME280;66794;43.764;10.436;2023-04-03T04:23:16;101265.09;;;7.02;100.00
77626;BME280;66794;43.764;10.436;2023-04-03T04:25:44;101246.06;;;6.94;100.00
77626;BME280;66794;43.764;10.436;2023-04-03T04:28:09;101252.31;;;7.04;100.00
77626;BME280;66794;43.764;10.436;2023-04-03T04:30:34;101252.31;;;6.75;100.00
77626;BME280;66794;43.764;10.436;2023-04-03T04:33:00;101252.31;;;6.35;100.00
77626;BME280;66794;43.764;10.436;2023-04-03T04:35:25;101256.78;;;6.55;100.00
77626;BME280;66794;43.764;10.436;2023-04-03T04:37:51;101259.03;;;6.50;100.00
77626;BME280;66794;43.764;10.436;2023-04-03T04:40:16;101258.56;;;6.36;100.00
77626;BME280;66794;43.764;10.436;2023-04-03T04:42:42;101263.28;;;6.13;100.00
77626;BME280;66794;43.764;10.436;2023-04-03T04:45:07;101267.19;;;6.29;100.00
77626;BME280;66794;43.764;10.436;2023-04-03T04:47:32;101262.69;;;5.99;100.00
77626;BME280;66794;43.764;10.436;2023-04-03T04:49:58;101268.72;;;5.71;100.00
77626;BME280;66794;43.764;10.436;2023-04-03T04:52:23;101262.06;;;5.75;100.00
77626;BME280;66794;43.764;10.436;2023-04-03T04:54:48;101272.81;;;5.75;100.00
77626;BME280;66794;43.764;10.436;2023-04-03T04:57:13;101267.97;;;5.90;100.00
77626;BME280;66794;43.764;10.436;2023-04-03T04:59:39;101267.66;;;5.83;100.00
77626;BME280;66794;43.764;10.436;2023-04-03T05:02:04;101257.09;;;6.22;100.00
77626;BME280;66794;43.764;10.436;2023-04-03T05:04:30;101256.56;;;6.28;100.00
77626;BME280;66794;43.764;10.436;2023-04-03T05:06:56;101263.75;;;6.18;100.00
77626;BME280;66794;43.764;10.436;2023-04-03T05:09:22;101268.72;;;6.22;100.00
77626;BME280;66794;43.764;10.436;2023-04-03T05:11:47;101255.72;;;6.27;100.00
77626;BME280;66794;43.764;10.436;2023-04-03T05:14:13;101264.38;;;6.41;100.00
77626;BME280;66794;43.764;10.436;2023-04-03T05:16:38;101261.59;;;6.52;100.00
77626;BME280;66794;43.764;10.436;2023-04-03T05:19:03;101260.63;;;6.63;100.00
77626;BME280;66794;43.764;10.436;2023-04-03T05:21:29;101272.19;;;6.44;100.00
77626;BME280;66794;43.764;10.436;2023-04-03T05:23:57;101270.19;;;6.36;100.00
77626;BME280;66794;43.764;10.436;2023-04-03T05:26:23;101278.88;;;6.09;100.00
77626;BME280;66794;43.764;10.436;2023-04-03T05:28:48;101266.34;;;5.98;100.00
77626;BME280;66794;43.764;10.436;2023-04-03T05:31:13;101273.34;;;6.11;100.00
77626;BME280;66794;43.764;10.436;2023-04-03T05:33:39;101266.13;;;6.11;100.00
77626;BME280;66794;43.764;10.436;2023-04-03T05:36:04;101271.09;;;6.16;100.00
77626;BME280;66794;43.764;10.436;2023-04-03T05:38:29;101265.44;;;10.44;100.00
77626;BME280;66794;43.764;10.436;2023-04-03T05:40:55;101268.63;;;7.42;100.00
77626;BME280;66794;43.764;10.436;2023-04-03T05:43:20;101268.91;;;7.48;100.00
77626;BME280;66794;43.764;10.436;2023-04-03T05:45:47;101266.78;;;7.61;100.00
77626;BME280;66794;43.764;10.436;2023-04-03T05:48:12;101266.78;;;7.42;100.00
77626;BME280;66794;43.764;10.436;2023-04-03T05:50:38;101276.25;;;6.88;100.00
77626;BME280;66794;43.764;10.436;2023-04-03T05:53:06;101268.78;;;7.01;100.00
77626;BME280;66794;43.764;10.436;2023-04-03T05:55:32;101273.16;;;7.22;100.00
77626;BME280;66794;43.764;10.436;2023-04-03T05:57:57;101267.06;;;7.10;100.00
77626;BME280;66794;43.764;10.436;2023-04-03T06:00:22;101270.88;;;7.17;100.00
77626;BME280;66794;43.764;10.436;2023-04-03T06:02:48;101266.94;;;7.21;100.00
77626;BME280;66794;43.764;10.436;2023-04-03T06:05:13;101279.97;;;7.26;100.00
77626;BME280;66794;43.764;10.436;2023-04-03T06:07:39;101282.94;;;7.42;100.00
77626;BME280;66794;43.764;10.436;2023-04-03T06:10:05;101282.66;;;7.45;100.00
77626;BME280;66794;43.764;10.436;2023-04-03T06:12:30;101282.06;;;7.71;100.00
77626;BME280;66794;43.764;10.436;2023-04-03T06:14:55;101274.09;;;7.79;100.00
77626;BME280;66794;43.764;10.436;2023-04-03T06:17:21;101276.00;;;8.06;100.00
77626;BME280;66794;43.764;10.436;2023-04-03T06:19:46;101271.25;;;8.27;100.00
77626;BME280;66794;43.764;10.436;2023-04-03T06:22:12;101278.66;;;8.53;100.00
77626;BME280;66794;43.764;10.436;2023-04-03T06:24:38;101280.09;;;8.75;100.00
77626;BME280;66794;43.764;10.436;2023-04-03T06:27:03;101280.97;;;8.75;100.00
77626;BME280;66794;43.764;10.436;2023-04-03T06:29:28;101283.09;;;8.81;100.00
77626;BME280;66794;43.764;10.436;2023-04-03T06:31:54;101284.56;;;9.11;100.00
77626;BME280;66794;43.764;10.436;2023-04-03T06:34:20;101285.56;;;9.28;100.00
77626;BME280;66794;43.764;10.436;2023-04-03T06:36:46;101295.13;;;9.58;100.00
77626;BME280;66794;43.764;10.436;2023-04-03T06:39:16;101285.66;;;9.80;100.00
77626;BME280;66794;43.764;10.436;2023-04-03T06:41:41;101294.31;;;10.10;100.00
77626;BME280;66794;43.764;10.436;2023-04-03T06:44:07;101288.88;;;10.27;100.00
77626;BME280;66794;43.764;10.436;2023-04-03T06:46:36;101290.31;;;10.48;100.00
77626;BME280;66794;43.764;10.436;2023-04-03T06:49:02;101286.31;;;10.68;100.00
77626;BME280;66794;43.764;10.436;2023-04-03T06:51:28;101279.66;;;11.05;100.00
77626;BME280;66794;43.764;10.436;2023-04-03T06:53:54;101282.03;;;11.24;100.00
77626;BME280;66794;43.764;10.436;2023-04-03T06:56:20;101279.34;;;11.57;100.00
77626;BME280;66794;43.764;10.436;2023-04-03T06:58:46;101280.03;;;11.67;100.00
77626;BME280;66794;43.764;10.436;2023-04-03T07:01:12;101288.69;;;11.71;100.00
77626;BME280;66794;43.764;10.436;2023-04-03T07:03:37;101284.13;;;11.88;100.00
77626;BME280;66794;43.764;10.436;2023-04-03T07:06:04;101275.47;;;11.84;100.00
77626;BME280;66794;43.764;10.436;2023-04-03T07:08:30;101281.00;;;12.15;100.00
77626;BME280;66794;43.764;10.436;2023-04-03T07:10:55;101279.81;;;13.50;100.00
77626;BME280;66794;43.764;10.436;2023-04-03T07:13:21;101282.41;;;12.50;100.00
77626;BME280;66794;43.764;10.436;2023-04-03T07:15:46;101293.22;;;12.67;100.00
77626;BME280;66794;43.764;10.436;2023-04-03T07:18:11;101282.97;;;12.77;100.00
77626;BME280;66794;43.764;10.436;2023-04-03T07:20:38;101275.09;;;12.90;97.42
77626;BME280;66794;43.764;10.436;2023-04-03T07:23:03;101280.25;;;13.08;92.83
77626;BME280;66794;43.764;10.436;2023-04-03T07:25:28;101278.50;;;13.23;90.99
77626;BME280;66794;43.764;10.436;2023-04-03T07:27:54;101275.34;;;13.34;90.19
77626;BME280;66794;43.764;10.436;2023-04-03T07:30:20;101280.66;;;13.51;90.42
77626;BME280;66794;43.764;10.436;2023-04-03T07:32:45;101282.31;;;13.75;90.99
77626;BME280;66794;43.764;10.436;2023-04-03T07:35:11;101271.69;;;14.03;83.56
77626;BME280;66794;43.764;10.436;2023-04-03T07:37:36;101280.31;;;14.21;80.42
77626;BME280;66794;43.764;10.436;2023-04-03T07:40:01;101278.06;;;14.39;79.71
77626;BME280;66794;43.764;10.436;2023-04-03T07:42:28;101281.19;;;14.51;77.93
77626;BME280;66794;43.764;10.436;2023-04-03T07:44:53;101284.47;;;14.61;75.98
77626;BME280;66794;43.764;10.436;2023-04-03T07:47:19;101275.09;;;14.64;74.76
77626;BME280;66794;43.764;10.436;2023-04-03T07:49:46;101277.69;;;14.72;75.42
77626;BME280;66794;43.764;10.436;2023-04-03T07:52:12;101281.03;;;14.89;73.84
77626;BME280;66794;43.764;10.436;2023-04-03T07:54:38;101279.31;;;15.03;72.23
77626;BME280;66794;43.764;10.436;2023-04-03T07:57:03;101272.63;;;15.05;72.44
77626;BME280;66794;43.764;10.436;2023-04-03T07:59:28;101276.41;;;15.25;71.71
77626;BME280;66794;43.764;10.436;2023-04-03T08:01:54;101266.75;;;15.23;69.29
77626;BME280;66794;43.764;10.436;2023-04-03T08:04:19;101266.88;;;15.36;68.79
77626;BME280;66794;43.764;10.436;2023-04-03T08:06:45;101265.38;;;15.55;69.58
77626;BME280;66794;43.764;10.436;2023-04-03T08:09:10;101266.09;;;15.64;66.94
77626;BME280;66794;43.764;10.436;2023-04-03T08:11:35;101264.75;;;15.60;68.25
77626;BME280;66794;43.764;10.436;2023-04-03T08:14:03;101263.25;;;15.72;67.51
77626;BME280;66794;43.764;10.436;2023-04-03T08:16:28;101258.78;;;15.71;67.45
77626;BME280;66794;43.764;10.436;2023-04-03T08:18:54;101260.00;;;15.90;66.91
77626;BME280;66794;43.764;10.436;2023-04-03T08:21:20;101259.44;;;16.01;64.50
77626;BME280;66794;43.764;10.436;2023-04-03T08:23:47;101258.97;;;16.25;60.77
77626;BME280;66794;43.764;10.436;2023-04-03T08:26:14;101218.72;;;16.06;59.69
77626;BME280;66794;43.764;10.436;2023-04-03T08:28:39;101263.25;;;16.41;59.88
77626;BME280;66794;43.764;10.436;2023-04-03T08:31:06;101262.34;;;16.69;62.28
77626;BME280;66794;43.764;10.436;2023-04-03T08:33:32;101254.31;;;16.61;59.21
77626;BME280;66794;43.764;10.436;2023-04-03T08:35:58;101253.72;;;16.65;57.69
77626;BME280;66794;43.764;10.436;2023-04-03T08:38:24;101252.72;;;16.79;61.39
77626;BME280;66794;43.764;10.436;2023-04-03T08:41:01;101256.97;;;16.89;58.99
77626;BME280;66794;43.764;10.436;2023-04-03T08:43:34;101250.13;;;17.32;57.12
77626;BME280;66794;43.764;10.436;2023-04-03T08:46:02;101244.19;;;17.02;54.60
77626;BME280;66794;43.764;10.436;2023-04-03T08:48:33;101237.00;;;16.88;56.02
77626;BME280;66794;43.764;10.436;2023-04-03T08:51:01;101243.16;;;17.10;57.59
77626;BME280;66794;43.764;10.436;2023-04-03T08:53:30;101246.78;;;17.30;58.49
77626;BME280;66794;43.764;10.436;2023-04-03T08:55:57;101249.09;;;17.47;57.08
77626;BME280;66794;43.764;10.436;2023-04-03T08:58:30;101247.81;;;17.36;56.37
77626;BME280;66794;43.764;10.436;2023-04-03T09:03:22;101248.53;;;17.78;55.61
77626;BME280;66794;43.764;10.436;2023-04-03T09:05:59;101230.56;;;17.95;55.35
77626;BME280;66794;43.764;10.436;2023-04-03T09:08:28;101240.88;;;17.93;53.29
77626;BME280;66794;43.764;10.436;2023-04-03T09:19:06;101234.53;;;18.12;51.70
77626;BME280;66794;43.764;10.436;2023-04-03T09:21:38;101228.16;;;18.38;52.45
77626;BME280;66794;43.764;10.436;2023-04-03T09:24:07;101234.47;;;18.39;50.69
77626;BME280;66794;43.764;10.436;2023-04-03T09:26:36;101231.09;;;18.44;52.47
77626;BME280;66794;43.764;10.436;2023-04-03T09:29:07;101228.47;;;18.62;51.45
77626;BME280;66794;43.764;10.436;2023-04-03T09:31:37;101225.53;;;18.57;49.55
77626;BME280;66794;43.764;10.436;2023-04-03T09:36:59;101215.91;;;18.41;49.34
77626;BME280;66794;43.764;10.436;2023-04-03T09:39:30;101224.03;;;18.68;51.68
77626;BME280;66794;43.764;10.436;2023-04-03T09:44:25;101220.97;;;18.89;48.94
77626;BME280;66794;43.764;10.436;2023-04-03T09:46:51;101217.13;;;18.97;46.43
77626;BME280;66794;43.764;10.436;2023-04-03T09:49:17;101224.03;;;18.68;44.17
77626;BME280;66794;43.764;10.436;2023-04-03T09:51:42;101223.63;;;19.34;47.27
77626;BME280;66794;43.764;10.436;2023-04-03T09:57:12;101204.97;;;19.17;45.52
77626;BME280;66794;43.764;10.436;2023-04-03T09:59:41;101209.88;;;19.09;46.64
77626;BME280;66794;43.764;10.436;2023-04-03T10:04:37;101192.69;;;19.20;47.18
77626;BME280;66794;43.764;10.436;2023-04-03T10:07:03;101187.94;;;19.02;45.42
77626;BME280;66794;43.764;10.436;2023-04-03T10:09:31;101193.25;;;18.97;42.70
77626;BME280;66794;43.764;10.436;2023-04-03T10:14:30;101182.31;;;19.22;43.08
77626;BME280;66794;43.764;10.436;2023-04-03T10:25:01;101176.91;;;19.65;41.04
77626;BME280;66794;43.764;10.436;2023-04-03T10:30:14;101175.41;;;18.88;37.79
77626;BME280;66794;43.764;10.436;2023-04-03T10:32:47;101175.03;;;19.09;39.73
77626;BME280;66794;43.764;10.436;2023-04-03T10:40:43;101167.88;;;19.58;40.25
77626;BME280;66794;43.764;10.436;2023-04-03T10:43:16;101164.25;;;19.64;40.66
77626;BME280;66794;43.764;10.436;2023-04-03T10:53:39;101157.53;;;19.60;39.09
77626;BME280;66794;43.764;10.436;2023-04-03T10:56:19;101157.00;;;19.45;39.62
77626;BME280;66794;43.764;10.436;2023-04-03T10:59:00;101148.69;;;19.52;38.00
77626;BME280;66794;43.764;10.436;2023-04-03T11:01:29;101148.72;;;20.13;41.17
77626;BME280;66794;43.764;10.436;2023-04-03T11:03:59;101148.63;;;20.20;40.50
77626;BME280;66794;43.764;10.436;2023-04-03T11:06:26;101146.41;;;20.47;39.10
77626;BME280;66794;43.764;10.436;2023-04-03T11:08:57;101138.94;;;20.17;39.03
77626;BME280;66794;43.764;10.436;2023-04-03T11:11:25;101155.13;;;20.26;39.00
77626;BME280;66794;43.764;10.436;2023-04-03T11:13:54;101103.13;;;19.87;39.47
77626;BME280;66794;43.764;10.436;2023-04-03T11:16:27;101137.53;;;20.27;40.66
77626;BME280;66794;43.764;10.436;2023-04-03T11:18:56;101132.97;;;19.84;40.55
77626;BME280;66794;43.764;10.436;2023-04-03T11:23:53;101132.19;;;19.95;39.20
77626;BME280;66794;43.764;10.436;2023-04-03T11:26:22;101133.56;;;19.67;37.85
77626;BME280;66794;43.764;10.436;2023-04-03T11:28:53;101128.16;;;19.36;37.70
77626;BME280;66794;43.764;10.436;2023-04-03T11:33:58;101119.41;;;20.37;37.57
77626;BME280;66794;43.764;10.436;2023-04-03T11:36:28;101118.38;;;19.83;39.83
77626;BME280;66794;43.764;10.436;2023-04-03T11:38:56;101108.91;;;20.34;39.70
77626;BME280;66794;43.764;10.436;2023-04-03T11:41:32;101103.22;;;19.81;37.59
77626;BME280;66794;43.764;10.436;2023-04-03T11:44:04;101115.03;;;20.18;40.56
77626;BME280;66794;43.764;10.436;2023-04-03T11:46:49;101102.66;;;20.09;39.88
77626;BME280;66794;43.764;10.436;2023-04-03T11:52:00;101106.56;;;20.49;39.73
77626;BME280;66794;43.764;10.436;2023-04-03T11:54:35;101107.34;;;19.90;38.06
77626;BME280;66794;43.764;10.436;2023-04-03T11:57:22;101111.47;;;20.47;40.35
77626;BME280;66794;43.764;10.436;2023-04-03T11:59:46;101106.44;;;20.44;36.92
77626;BME280;66794;43.764;10.436;2023-04-03T12:07:40;101086.84;;;20.83;39.49
77626;BME280;66794;43.764;10.436;2023-04-03T12:10:14;101094.44;;;20.69;38.07
77626;BME280;66794;43.764;10.436;2023-04-03T12:12:41;101084.41;;;20.74;37.47
77626;BME280;66794;43.764;10.436;2023-04-03T12:17:47;101087.66;;;20.71;37.00
77626;BME280;66794;43.764;10.436;2023-04-03T12:25:50;101084.28;;;20.69;37.06
77626;BME280;66794;43.764;10.436;2023-04-03T12:28:16;101071.63;;;20.80;36.78
77626;BME280;66794;43.764;10.436;2023-04-03T12:30:41;101075.78;;;20.71;37.29
77626;BME280;66794;43.764;10.436;2023-04-03T12:35:36;101064.97;;;21.11;36.65
77626;BME280;66794;43.764;10.436;2023-04-03T12:48:33;101056.47;;;21.71;35.18
77626;BME280;66794;43.764;10.436;2023-04-03T12:51:03;101042.22;;;21.27;34.79
77626;BME280;66794;43.764;10.436;2023-04-03T12:53:31;101049.41;;;21.17;36.00
77626;BME280;66794;43.764;10.436;2023-04-03T12:56:21;101050.00;;;21.31;35.18
77626;BME280;66794;43.764;10.436;2023-04-03T12:58:45;101040.03;;;20.83;34.22
77626;BME280;66794;43.764;10.436;2023-04-03T13:01:11;101055.53;;;21.54;34.55
77626;BME280;66794;43.764;10.436;2023-04-03T13:03:38;101060.09;;;21.48;32.83
77626;BME280;66794;43.764;10.436;2023-04-03T13:06:05;101051.91;;;22.05;34.10
77626;BME280;66794;43.764;10.436;2023-04-03T13:08:30;101055.50;;;22.06;32.80
77626;BME280;66794;43.764;10.436;2023-04-03T13:11:01;101047.94;;;22.25;33.14
77626;BME280;66794;43.764;10.436;2023-04-03T13:13:27;101033.91;;;22.43;32.37
77626;BME280;66794;43.764;10.436;2023-04-03T13:15:53;101048.25;;;22.57;31.73
77626;BME280;66794;43.764;10.436;2023-04-03T13:20:47;101038.59;;;22.43;31.67
77626;BME280;66794;43.764;10.436;2023-04-03T13:23:13;101037.41;;;22.67;32.24
77626;BME280;66794;43.764;10.436;2023-04-03T13:25:43;101036.00;;;22.98;32.33
77626;BME280;66794;43.764;10.436;2023-04-03T13:28:13;101036.41;;;23.24;31.93
77626;BME280;66794;43.764;10.436;2023-04-03T13:30:41;101020.00;;;22.21;30.79
77626;BME280;66794;43.764;10.436;2023-04-03T13:33:20;101022.59;;;22.56;31.32
77626;BME280;66794;43.764;10.436;2023-04-03T13:35:48;101028.50;;;22.65;31.36
77626;BME280;66794;43.764;10.436;2023-04-03T13:40:52;101013.72;;;22.88;30.96
77626;BME280;66794;43.764;10.436;2023-04-03T13:43:26;101025.03;;;22.24;30.16
77626;BME280;66794;43.764;10.436;2023-04-03T13:48:20;101016.78;;;22.41;31.38
77626;BME280;66794;43.764;10.436;2023-04-03T13:51:01;101022.31;;;22.58;30.80
77626;BME280;66794;43.764;10.436;2023-04-03T13:53:28;101022.69;;;22.78;29.84
77626;BME280;66794;43.764;10.436;2023-04-03T13:58:29;100998.88;;;22.44;30.61
77626;BME280;66794;43.764;10.436;2023-04-03T14:00:56;101001.56;;;22.72;30.25
77626;BME280;66794;43.764;10.436;2023-04-03T14:03:39;100999.00;;;22.20;29.74
77626;BME280;66794;43.764;10.436;2023-04-03T14:06:05;100995.56;;;22.92;30.61
77626;BME280;66794;43.764;10.436;2023-04-03T14:08:31;101001.34;;;22.74;29.68
77626;BME280;66794;43.764;10.436;2023-04-03T14:10:56;100995.84;;;22.91;29.11
77626;BME280;66794;43.764;10.436;2023-04-03T14:13:22;100993.31;;;23.45;29.13